Time;durP1;ratioP1;P1;durP2;ratioP2;P2;SDS_P1;SDS_P2;PMS_P1;PMS_P2;Temp;Humidity;BMP_temperature;BMP_pressure;BME280_temperature;BME280_humidity;BME280_pressure;Samples;Min_cycle;Max_cycle;Signal;HPM_P1;HPM_P2
2023/08/13 00:02:09;;;;;;;2.88;2.58;;;19.70;77.70;;;;;;5095149;28;20646;-87
2023/08/13 00:04:34;;;;;;;3.10;2.80;;;19.80;77.70;;;;;;5095246;28;20258;-86
2023/08/13 00:07:00;;;;;;;2.65;2.45;;;19.70;77.70;;;;;;5077441;28;20204;-85
2023/08/13 00:09:26;;;;;;;2.80;2.50;;;19.70;77.70;;;;;;5095039;28;20517;-87
2023/08/13 00:11:53;;;;;;;2.75;2.55;;;19.70;78.60;;;;;;5111736;28;20167;-86
2023/08/13 00:14:19;;;;;;;3.05;2.58;;;19.70;77.80;;;;;;5095146;28;20158;-85
2023/08/13 00:16:47;;;;;;;2.67;2.42;;;19.70;77.70;;;;;;5094888;28;20168;-86
2023/08/13 00:19:13;;;;;;;2.92;2.50;;;19.70;77.70;;;;;;5078183;28;20364;-85
2023/08/13 00:21:39;;;;;;;2.85;2.55;;;19.70;77.70;;;;;;5078358;28;20164;-86
2023/08/13 00:24:05;;;;;;;2.85;2.50;;;19.70;77.70;;;;;;5094990;28;20691;-85
2023/08/13 00:26:31;;;;;;;2.60;2.40;;;19.80;77.80;;;;;;5077822;28;20191;-86
2023/08/13 00:28:57;;;;;;;2.60;2.40;;;19.70;77.70;;;;;;5078227;28;20159;-86
2023/08/13 00:31:23;;;;;;;3.25;2.80;;;19.70;77.70;;;;;;5113252;28;20533;-85
2023/08/13 00:33:49;;;;;;;2.90;2.67;;;19.70;77.80;;;;;;5112880;28;20148;-86
2023/08/13 00:36:15;;;;;;;2.75;2.50;;;19.70;77.80;;;;;;5111430;28;20168;-87
2023/08/13 00:38:41;;;;;;;2.72;2.53;;;19.70;77.80;;;;;;5078047;28;20180;-88
2023/08/13 00:41:11;;;;;;;3.10;2.80;;;19.70;77.80;;;;;;5077917;28;20168;-87
2023/08/13 00:43:38;;;;;;;3.10;2.75;;;19.70;77.80;;;;;;5060437;28;20267;-87
2023/08/13 00:46:04;;;;;;;2.80;2.60;;;19.70;77.80;;;;;;5111544;28;20188;-87
2023/08/13 00:48:35;;;;;;;3.00;2.70;;;19.70;77.80;;;;;;5061047;28;20156;-86
2023/08/13 00:51:04;;;;;;;2.95;2.55;;;19.70;77.80;;;;;;5028010;28;20191;-86
2023/08/13 00:53:34;;;;;;;3.15;2.80;;;19.70;77.80;;;;;;5043541;28;20212;-87
2023/08/13 00:55:59;;;;;;;3.08;2.53;;;19.70;77.80;;;;;;5043896;28;20251;-87
2023/08/13 00:58:27;;;;;;;2.80;2.50;;;19.70;77.80;;;;;;5094256;28;20164;-86
2023/08/13 01:00:55;;;;;;;3.28;2.70;;;19.70;77.80;;;;;;5026761;28;20182;-87
2023/08/13 01:03:20;;;;;;;3.20;2.80;;;19.60;77.80;;;;;;5043376;28;20180;-88
2023/08/13 01:06:22;;;;;;;3.00;2.70;;;19.60;77.80;;;;;;5094396;28;20541;-88
2023/08/13 01:09:02;;;;;;;3.03;2.72;;;19.60;77.90;;;;;;5071821;28;20172;-87
2023/08/13 01:11:51;;;;;;;3.10;2.80;;;19.70;78.00;;;;;;5032396;28;20179;-86
2023/08/13 01:14:26;;;;;;;3.03;2.72;;;19.70;77.90;;;;;;5081236;28;20168;-86
2023/08/13 01:16:53;;;;;;;2.90;2.70;;;19.60;77.80;;;;;;5065846;28;20266;-86
2023/08/13 01:19:19;;;;;;;2.80;2.60;;;19.70;77.80;;;;;;5115177;28;20168;-88
2023/08/13 01:21:45;;;;;;;3.25;2.63;;;19.70;78.00;;;;;;5081249;28;20179;-88
2023/08/13 01:24:11;;;;;;;3.00;2.60;;;19.60;77.80;;;;;;5081115;28;20541;-87
2023/08/13 01:27:16;;;;;;;3.20;2.85;;;19.60;77.90;;;;;;5098066;28;20183;-89
2023/08/13 01:29:52;;;;;;;3.38;2.70;;;19.70;78.00;;;;;;5080440;28;20176;-87
2023/08/13 01:32:20;;;;;;;3.05;2.75;;;19.70;78.00;;;;;;5030874;28;20176;-86
2023/08/13 01:34:46;;;;;;;3.58;2.38;;;19.60;78.00;;;;;;5080634;28;20515;-87
2023/08/13 01:37:12;;;;;;;2.97;2.67;;;19.60;78.00;;;;;;5080089;28;20179;-86
2023/08/13 01:39:42;;;;;;;2.83;2.58;;;19.60;78.00;;;;;;5097395;28;20171;-89
2023/08/13 01:42:11;;;;;;;3.08;2.78;;;19.60;78.00;;;;;;5046721;28;20282;-87
2023/08/13 01:44:38;;;;;;;3.22;2.63;;;19.70;78.10;;;;;;5097884;28;20163;-86
2023/08/13 01:47:04;;;;;;;3.10;2.80;;;19.60;78.00;;;;;;5080653;28;20180;-86
2023/08/13 01:49:35;;;;;;;3.15;2.78;;;19.60;78.00;;;;;;5097601;28;20194;-88
2023/08/13 01:52:00;;;;;;;2.80;2.50;;;19.60;78.00;;;;;;5063221;28;20211;-86
2023/08/13 01:54:30;;;;;;;3.05;2.75;;;19.70;78.00;;;;;;5097647;28;20230;-87
2023/08/13 01:56:56;;;;;;;2.63;2.30;;;19.70;78.10;;;;;;5063025;28;20231;-88
2023/08/13 01:59:23;;;;;;;3.35;3.00;;;19.60;78.10;;;;;;5114062;28;20168;-88
2023/08/13 02:01:50;;;;;;;2.83;2.55;;;19.60;78.10;;;;;;5029725;28;20180;-87
2023/08/13 02:04:17;;;;;;;3.00;2.70;;;19.60;78.10;;;;;;5079441;28;20215;-85
2023/08/13 02:06:43;;;;;;;3.40;2.65;;;19.60;78.10;;;;;;5061897;28;20214;-88
2023/08/13 02:09:10;;;;;;;2.97;2.67;;;19.60;78.20;;;;;;5080601;28;20172;-88
2023/08/13 02:11:36;;;;;;;2.70;2.40;;;19.60;78.20;;;;;;5113927;28;20160;-86
2023/08/13 02:14:02;;;;;;;3.22;2.92;;;19.60;78.20;;;;;;5097153;28;20619;-89
2023/08/13 02:16:28;;;;;;;3.10;2.80;;;19.60;78.10;;;;;;5113994;28;20210;-88
2023/08/13 02:18:54;;;;;;;2.90;2.60;;;19.60;78.10;;;;;;5096578;28;20203;-87
2023/08/13 02:21:20;;;;;;;2.97;2.67;;;19.60;78.20;;;;;;5097080;28;20176;-87
2023/08/13 02:23:46;;;;;;;3.15;2.85;;;19.60;78.10;;;;;;5096736;28;20626;-85
2023/08/13 02:26:13;;;;;;;3.22;2.78;;;19.60;78.10;;;;;;5096785;28;20658;-87
2023/08/13 02:28:39;;;;;;;3.17;2.88;;;19.60;78.10;;;;;;5113784;28;20149;-88
2023/08/13 02:31:04;;;;;;;2.90;2.63;;;19.60;78.10;;;;;;5096833;28;20156;-87
2023/08/13 02:33:31;;;;;;;2.90;2.55;;;19.60;78.10;;;;;;5096601;28;20163;-86
2023/08/13 02:36:00;;;;;;;3.13;2.42;;;19.60;78.20;;;;;;5096548;28;20200;-88
2023/08/13 02:38:26;;;;;;;3.38;2.80;;;19.60;78.20;;;;;;5079026;28;20187;-85
2023/08/13 02:40:55;;;;;;;2.95;2.60;;;19.60;78.20;;;;;;5096739;28;20627;-86
2023/08/13 02:43:26;;;;;;;3.65;2.92;;;19.60;78.20;;;;;;5095735;28;20673;-86
2023/08/13 02:45:54;;;;;;;3.10;2.80;;;19.60;78.20;;;;;;5079242;28;20203;-86
2023/08/13 02:48:19;;;;;;;3.55;3.00;;;19.60;78.20;;;;;;5062126;28;20180;-86
2023/08/13 02:50:47;;;;;;;3.55;3.10;;;19.60;78.30;;;;;;5096610;28;20187;-88
2023/08/13 02:53:14;;;;;;;3.17;2.75;;;19.60;78.30;;;;;;5078488;28;20182;-86
2023/08/13 02:55:39;;;;;;;3.10;2.78;;;19.60;78.30;;;;;;5095037;28;20233;-88
2023/08/13 02:58:05;;;;;;;3.38;2.88;;;19.60;78.30;;;;;;5063036;28;20215;-89
2023/08/13 03:00:35;;;;;;;3.33;3.03;;;19.60;78.30;;;;;;5096335;28;20172;-87
2023/08/13 03:03:02;;;;;;;3.42;3.10;;;19.60;78.40;;;;;;5078443;28;20179;-85
2023/08/13 03:05:30;;;;;;;3.20;2.67;;;19.60;78.40;;;;;;5095146;28;20647;-86
2023/08/13 03:07:56;;;;;;;2.65;2.45;;;19.60;78.50;;;;;;5095786;28;20175;-88
2023/08/13 03:10:21;;;;;;;2.75;2.53;;;19.60;78.30;;;;;;5079541;28;20519;-88
2023/08/13 03:12:47;;;;;;;2.97;2.60;;;19.60;78.30;;;;;;5095867;28;20281;-87
2023/08/13 03:15:13;;;;;;;3.53;2.60;;;19.60;78.30;;;;;;5095804;28;20171;-86
2023/08/13 03:17:39;;;;;;;3.42;2.90;;;19.60;78.30;;;;;;5113926;28;20641;-85
2023/08/13 03:20:09;;;;;;;3.15;2.80;;;19.60;78.30;;;;;;5096064;28;20167;-86
2023/08/13 03:22:35;;;;;;;2.97;2.70;;;19.60;78.30;;;;;;5078156;28;20405;-87
2023/08/13 03:25:01;;;;;;;3.15;2.85;;;19.50;78.30;;;;;;5078728;28;20170;-85
2023/08/13 03:27:26;;;;;;;3.00;2.70;;;19.60;78.40;;;;;;5095758;28;20224;-84
2023/08/13 03:29:53;;;;;;;3.20;2.70;;;19.60;78.40;;;;;;5095146;28;20195;-86
2023/08/13 03:32:22;;;;;;;2.90;2.60;;;19.60;78.50;;;;;;5095683;28;20148;-85
2023/08/13 03:34:52;;;;;;;3.28;2.72;;;19.60;78.50;;;;;;5061003;28;20184;-86
2023/08/13 03:37:19;;;;;;;2.78;2.53;;;19.60;78.30;;;;;;5061133;28;20179;-87
2023/08/13 03:39:48;;;;;;;3.22;2.90;;;19.60;78.40;;;;;;5078795;28;20168;-86
2023/08/13 03:42:17;;;;;;;3.30;2.83;;;19.60;78.30;;;;;;5061108;28;20724;-85
2023/08/13 03:44:45;;;;;;;3.13;2.72;;;19.60;78.40;;;;;;5061085;28;20187;-87
2023/08/13 03:47:13;;;;;;;3.10;2.80;;;19.60;78.40;;;;;;5077628;28;20223;-87
2023/08/13 03:49:39;;;;;;;3.17;2.88;;;19.60;78.40;;;;;;5094489;28;20210;-87
2023/08/13 03:52:06;;;;;;;3.10;2.80;;;19.50;78.50;;;;;;5095619;28;20191;-86
2023/08/13 03:54:35;;;;;;;2.83;2.60;;;19.60;78.50;;;;;;5095650;28;20220;-85
2023/08/13 03:57:00;;;;;;;3.08;2.78;;;19.50;78.50;;;;;;5077160;28;20242;-86
2023/08/13 03:59:28;;;;;;;2.90;2.70;;;19.60;78.60;;;;;;5112026;28;20160;-87
2023/08/13 04:01:58;;;;;;;3.63;3.13;;;19.60;78.60;;;;;;5060800;28;20176;-86
2023/08/13 04:04:26;;;;;;;3.20;2.90;;;19.60;78.60;;;;;;5078293;28;20709;-85
2023/08/13 04:06:54;;;;;;;2.90;2.60;;;19.60;78.50;;;;;;5076790;28;20224;-85
2023/08/13 04:09:24;;;;;;;3.15;2.83;;;19.60;78.40;;;;;;5077595;28;20176;-85
2023/08/13 04:11:49;;;;;;;3.20;2.90;;;19.60;78.50;;;;;;5084029;28;20270;-86
2023/08/13 04:14:16;;;;;;;3.40;3.08;;;19.60;78.60;;;;;;5102858;28;20180;-88
2023/08/13 04:16:43;;;;;;;3.28;2.97;;;19.60;78.60;;;;;;5084952;28;20179;-87
2023/08/13 04:19:11;;;;;;;3.20;2.90;;;19.60;78.60;;;;;;5085083;28;20290;-88
2023/08/13 04:21:37;;;;;;;3.30;3.00;;;19.60;78.70;;;;;;5098749;28;20218;-87
2023/08/13 04:24:03;;;;;;;3.47;3.17;;;19.50;78.70;;;;;;5111741;28;20156;-86
2023/08/13 04:26:29;;;;;;;3.30;3.00;;;19.50;78.70;;;;;;5095073;28;20219;-85
2023/08/13 04:28:55;;;;;;;3.20;2.90;;;19.50;78.80;;;;;;5094967;28;20205;-85
2023/08/13 04:31:21;;;;;;;3.35;3.05;;;19.50;78.80;;;;;;5094846;28;20254;-86
2023/08/13 04:33:48;;;;;;;3.20;2.90;;;19.50;78.80;;;;;;5094927;28;20205;-87
2023/08/13 04:36:14;;;;;;;3.15;2.85;;;19.60;78.90;;;;;;5077968;28;20572;-86
2023/08/13 04:38:39;;;;;;;4.20;3.05;;;19.50;78.70;;;;;;5094731;28;20631;-86
2023/08/13 04:41:09;;;;;;;3.58;3.00;;;19.50;78.80;;;;;;5112520;28;20666;-88
2023/08/13 04:43:35;;;;;;;3.63;3.15;;;19.50;79.00;;;;;;5082080;28;20621;-87
2023/08/13 04:46:01;;;;;;;3.70;3.00;;;19.50;78.90;;;;;;5098457;28;20227;-85
2023/08/13 04:48:44;;;;;;;3.58;3.20;;;19.50;79.00;;;;;;5115133;28;20166;-86
2023/08/13 04:51:10;;;;;;;3.72;3.03;;;19.60;79.00;;;;;;5098401;28;20160;-86
2023/08/13 04:53:35;;;;;;;3.22;2.92;;;19.50;78.90;;;;;;5098241;28;20230;-88
2023/08/13 04:56:01;;;;;;;3.17;2.88;;;19.50;78.90;;;;;;5098006;28;20208;-85
2023/08/13 04:58:27;;;;;;;3.80;3.10;;;19.50;78.90;;;;;;5098724;28;20247;-86
2023/08/13 05:00:53;;;;;;;3.03;2.75;;;19.50;79.00;;;;;;5081491;28;20210;-85
2023/08/13 05:03:18;;;;;;;3.55;2.90;;;19.50;79.10;;;;;;5098504;28;20152;-87
2023/08/13 05:05:44;;;;;;;3.25;2.95;;;19.50;79.00;;;;;;5116552;28;20176;-86
2023/08/13 05:08:10;;;;;;;4.45;3.30;;;19.50;79.00;;;;;;5098155;28;20168;-86
2023/08/13 05:10:36;;;;;;;3.63;3.33;;;19.60;79.10;;;;;;5098329;28;20558;-87
2023/08/13 05:13:02;;;;;;;3.60;2.83;;;19.50;79.10;;;;;;5081277;28;20186;-85
2023/08/13 05:15:28;;;;;;;3.30;3.00;;;19.50;79.00;;;;;;5064661;28;20164;-87
2023/08/13 05:17:54;;;;;;;3.63;3.17;;;19.50;79.10;;;;;;5116389;28;20152;-86
2023/08/13 05:20:20;;;;;;;3.05;2.70;;;19.50;79.10;;;;;;5115134;28;20164;-87
2023/08/13 05:22:46;;;;;;;3.20;2.88;;;19.50;79.00;;;;;;5098165;28;20691;-86
2023/08/13 05:25:12;;;;;;;3.30;3.00;;;19.50;79.00;;;;;;5081286;28;20171;-87
2023/08/13 05:27:38;;;;;;;3.58;3.10;;;19.50;79.30;;;;;;5115030;28;20602;-88
2023/08/13 05:30:05;;;;;;;3.72;3.17;;;19.50;79.10;;;;;;5114974;28;20191;-87
2023/08/13 05:32:31;;;;;;;3.85;3.00;;;19.50;79.20;;;;;;5097874;28;20250;-87
2023/08/13 05:34:57;;;;;;;3.30;2.80;;;19.50;79.20;;;;;;5114930;28;20179;-87
2023/08/13 05:37:22;;;;;;;4.32;2.92;;;19.50;79.30;;;;;;5114923;28;20225;-87
2023/08/13 05:39:48;;;;;;;3.97;3.03;;;19.50;79.30;;;;;;5097852;28;20164;-87
2023/08/13 05:42:14;;;;;;;3.30;2.90;;;19.50;79.40;;;;;;5115182;28;20524;-87
2023/08/13 05:44:40;;;;;;;3.17;2.88;;;19.50;79.30;;;;;;5097649;28;20688;-86
2023/08/13 05:47:06;;;;;;;3.70;3.30;;;19.50;79.30;;;;;;5097759;28;20738;-85
2023/08/13 05:49:32;;;;;;;3.15;2.85;;;19.50;79.40;;;;;;5097314;28;20159;-86
2023/08/13 05:51:58;;;;;;;3.22;2.92;;;19.50;79.40;;;;;;5114415;28;20518;-85
2023/08/13 05:54:23;;;;;;;3.10;2.80;;;19.50;79.30;;;;;;5113628;28;20156;-86
2023/08/13 05:56:49;;;;;;;3.13;2.83;;;19.50;79.40;;;;;;5097093;28;20717;-85
2023/08/13 05:59:15;;;;;;;3.08;2.78;;;19.50;79.20;;;;;;5114555;28;20171;-86
2023/08/13 06:01:41;;;;;;;3.22;2.90;;;19.50;79.40;;;;;;5114411;28;20172;-87
2023/08/13 06:04:07;;;;;;;3.28;2.65;;;19.50;79.40;;;;;;5097041;28;20700;-87
2023/08/13 06:06:33;;;;;;;3.58;3.00;;;19.60;79.30;;;;;;5113587;28;20207;-87
2023/08/13 06:08:59;;;;;;;3.08;2.72;;;19.60;79.50;;;;;;5097119;28;20160;-85
2023/08/13 06:11:24;;;;;;;3.72;3.10;;;19.50;80.20;;;;;;5097354;28;20653;-86
2023/08/13 06:13:50;;;;;;;3.08;2.60;;;19.50;79.40;;;;;;5097152;28;20228;-86
2023/08/13 06:16:16;;;;;;;3.28;2.78;;;19.50;79.40;;;;;;5080363;28;20621;-86
2023/08/13 06:18:42;;;;;;;3.50;3.20;;;19.50;79.40;;;;;;5114097;28;20676;-85
2023/08/13 06:21:08;;;;;;;3.88;3.13;;;19.50;79.50;;;;;;5096919;28;20256;-88
2023/08/13 06:23:34;;;;;;;3.40;3.08;;;19.50;79.60;;;;;;5114072;28;20604;-85
2023/08/13 06:26:00;;;;;;;3.72;3.17;;;19.40;79.40;;;;;;5115112;28;20187;-86
2023/08/13 06:28:26;;;;;;;3.15;2.75;;;19.50;79.80;;;;;;5115071;28;20152;-86
2023/08/13 06:30:52;;;;;;;4.55;3.15;;;19.50;79.60;;;;;;5079895;28;20164;-87
2023/08/13 06:33:18;;;;;;;3.20;2.90;;;19.50;79.60;;;;;;5113795;28;20164;-86
2023/08/13 06:35:46;;;;;;;3.30;2.72;;;19.50;79.60;;;;;;5096541;28;20160;-86
2023/08/13 06:38:16;;;;;;;3.45;2.92;;;19.50;79.60;;;;;;5096902;28;20156;-86
2023/08/13 06:40:46;;;;;;;3.00;2.70;;;19.50;80.40;;;;;;5078952;28;20190;-85
2023/08/13 06:43:16;;;;;;;3.05;2.75;;;19.50;79.60;;;;;;5062207;28;20192;-87
2023/08/13 06:45:45;;;;;;;3.22;2.90;;;19.50;79.80;;;;;;5062083;28;20555;-87
2023/08/13 06:48:14;;;;;;;2.90;2.60;;;19.50;80.10;;;;;;5078801;28;20252;-86
2023/08/13 06:50:41;;;;;;;3.33;2.65;;;19.50;80.20;;;;;;5078599;28;20763;-86
2023/08/13 06:53:07;;;;;;;3.22;2.85;;;19.60;80.40;;;;;;5061911;28;20673;-85
2023/08/13 06:55:34;;;;;;;3.10;2.80;;;19.60;80.90;;;;;;5096205;28;20156;-86
2023/08/13 06:58:02;;;;;;;3.03;2.42;;;19.60;81.00;;;;;;5041759;28;20200;-86
2023/08/13 07:00:29;;;;;;;2.90;2.60;;;19.60;81.40;;;;;;5041806;28;20647;-86
2023/08/13 07:02:56;;;;;;;2.50;2.30;;;19.50;82.30;;;;;;5008642;28;20181;-86
2023/08/13 07:05:23;;;;;;;2.65;2.42;;;19.60;82.00;;;;;;5057036;28;20184;-85
2023/08/13 07:07:50;;;;;;;2.40;2.20;;;19.50;81.80;;;;;;5024471;28;20538;-85
2023/08/13 07:10:16;;;;;;;2.83;2.55;;;19.50;82.10;;;;;;5041696;28;20172;-87
2023/08/13 07:12:42;;;;;;;2.78;2.33;;;19.60;82.10;;;;;;5058918;28;20259;-86
2023/08/13 07:15:09;;;;;;;2.63;2.42;;;19.50;82.50;;;;;;5058982;28;20161;-87
2023/08/13 07:17:35;;;;;;;2.65;2.45;;;19.50;82.60;;;;;;5075654;28;20203;-86
2023/08/13 07:20:04;;;;;;;2.10;1.90;;;19.50;82.80;;;;;;5075614;28;20214;-85
2023/08/13 07:22:29;;;;;;;2.50;2.30;;;19.60;83.20;;;;;;5075964;28;20199;-86
2023/08/13 07:24:55;;;;;;;3.10;2.30;;;19.50;83.50;;;;;;5058665;28;20577;-86
2023/08/13 07:27:22;;;;;;;2.67;2.40;;;19.60;83.50;;;;;;5075313;28;20492;-86
2023/08/13 07:29:48;;;;;;;2.53;2.28;;;19.50;83.50;;;;;;5058352;28;20164;-86
2023/08/13 07:32:14;;;;;;;2.40;2.20;;;19.50;83.80;;;;;;5058606;28;20161;-86
2023/08/13 07:34:40;;;;;;;2.53;2.20;;;19.50;83.90;;;;;;5058415;28;20218;-86
2023/08/13 07:37:06;;;;;;;2.47;2.28;;;19.50;84.20;;;;;;5058301;28;20532;-86
2023/08/13 07:39:31;;;;;;;2.67;2.30;;;19.50;84.10;;;;;;5058605;28;20156;-87
2023/08/13 07:41:57;;;;;;;2.88;2.28;;;19.50;84.10;;;;;;5058490;28;20569;-85
2023/08/13 07:44:24;;;;;;;2.40;2.17;;;19.50;84.30;;;;;;5058368;28;20165;-87
2023/08/13 07:46:54;;;;;;;2.83;2.35;;;19.60;84.40;;;;;;5058591;28;20643;-86
2023/08/13 07:49:20;;;;;;;2.53;2.30;;;19.50;84.40;;;;;;5074712;28;20157;-85
2023/08/13 07:51:45;;;;;;;2.50;2.13;;;19.50;84.70;;;;;;5058679;28;20156;-86
2023/08/13 07:54:11;;;;;;;2.65;2.33;;;19.50;84.80;;;;;;5075385;28;20149;-87
2023/08/13 07:56:37;;;;;;;2.67;2.40;;;19.50;84.90;;;;;;5066799;28;20634;-88
2023/08/13 07:59:04;;;;;;;2.35;2.15;;;19.50;85.00;;;;;;5078151;28;20186;-86
2023/08/13 08:01:30;;;;;;;2.50;2.30;;;19.50;85.30;;;;;;5061850;28;20558;-86
2023/08/13 08:03:56;;;;;;;2.63;2.20;;;19.50;85.60;;;;;;5094964;28;20247;-86
2023/08/13 08:06:22;;;;;;;2.30;2.10;;;19.50;85.50;;;;;;5077494;28;20319;-86
2023/08/13 08:08:48;;;;;;;2.42;2.20;;;19.50;85.60;;;;;;5094959;28;20229;-87
2023/08/13 08:11:14;;;;;;;2.60;2.40;;;19.50;85.80;;;;;;5095251;28;20152;-86
2023/08/13 08:13:39;;;;;;;2.38;2.15;;;19.50;86.10;;;;;;5078335;28;20199;-87
2023/08/13 08:16:05;;;;;;;2.65;2.30;;;19.60;86.00;;;;;;5077752;28;20371;-86
2023/08/13 08:18:31;;;;;;;2.33;2.13;;;19.50;86.10;;;;;;5078130;28;20259;-87
2023/08/13 08:20:57;;;;;;;2.58;2.28;;;19.50;86.40;;;;;;5094998;28;20641;-87
2023/08/13 08:23:22;;;;;;;3.90;2.67;;;19.60;86.60;;;;;;5078001;28;20160;-86
2023/08/13 08:25:48;;;;;;;2.47;2.15;;;19.50;86.50;;;;;;5094927;28;20184;-84
2023/08/13 08:28:14;;;;;;;3.55;2.50;;;19.50;86.90;;;;;;5113208;28;20163;-87
2023/08/13 08:30:40;;;;;;;2.50;2.30;;;19.50;86.80;;;;;;5077951;28;20275;-87
2023/08/13 08:33:06;;;;;;;2.70;2.45;;;19.50;87.90;;;;;;5094979;28;20156;-86
2023/08/13 08:35:33;;;;;;;2.50;2.30;;;19.60;87.10;;;;;;5111780;28;20635;-86
2023/08/13 08:37:59;;;;;;;2.85;2.55;;;19.60;87.20;;;;;;5078722;28;20148;-85
2023/08/13 08:40:26;;;;;;;3.17;2.65;;;19.50;87.10;;;;;;5095035;28;20622;-87
2023/08/13 08:42:51;;;;;;;2.80;2.60;;;19.50;87.40;;;;;;5094865;28;20156;-87
2023/08/13 08:45:17;;;;;;;3.33;2.80;;;19.50;87.40;;;;;;5111645;28;20159;-85
2023/08/13 08:47:43;;;;;;;2.60;2.40;;;19.50;87.50;;;;;;5111730;28;20192;-85
2023/08/13 08:50:10;;;;;;;3.13;2.83;;;19.50;87.80;;;;;;5094948;28;20152;-86
2023/08/13 08:52:36;;;;;;;3.58;2.75;;;19.50;87.90;;;;;;5095146;28;20242;-85
2023/08/13 08:55:03;;;;;;;3.05;2.70;;;19.50;88.00;;;;;;5111685;28;20633;-86
2023/08/13 08:57:28;;;;;;;3.60;3.10;;;19.50;88.10;;;;;;5078185;28;20224;-87
2023/08/13 08:59:54;;;;;;;3.70;3.17;;;19.50;87.90;;;;;;5112717;28;20163;-86
2023/08/13 09:02:20;;;;;;;3.10;2.80;;;19.50;88.00;;;;;;5111551;28;20153;-85
2023/08/13 09:04:46;;;;;;;3.25;2.95;;;19.50;88.20;;;;;;5111472;28;20160;-85
2023/08/13 09:07:12;;;;;;;3.40;3.10;;;19.50;88.50;;;;;;5110746;28;20644;-85
2023/08/13 09:09:43;;;;;;;3.47;3.08;;;19.50;88.70;;;;;;5094240;28;20179;-85
2023/08/13 09:12:09;;;;;;;3.30;3.00;;;19.50;88.90;;;;;;5094842;28;20148;-85
2023/08/13 09:14:35;;;;;;;3.35;2.75;;;19.50;88.80;;;;;;5077606;28;20168;-86
2023/08/13 09:17:01;;;;;;;3.40;3.10;;;19.50;89.00;;;;;;5111415;28;20154;-87
2023/08/13 09:19:27;;;;;;;3.63;3.05;;;19.50;89.00;;;;;;5111306;28;20164;-86
2023/08/13 09:21:56;;;;;;;3.15;2.90;;;19.50;89.00;;;;;;5094728;28;20156;-84
2023/08/13 09:24:36;;;;;;;3.10;2.88;;;19.50;89.00;;;;;;5094728;28;20627;-86
2023/08/13 09:27:03;;;;;;;3.13;2.83;;;19.50;89.30;;;;;;5094005;28;20184;-84
2023/08/13 09:29:30;;;;;;;3.30;3.00;;;19.50;89.30;;;;;;5096789;28;20148;-85
2023/08/13 09:31:57;;;;;;;3.53;3.00;;;19.50;89.20;;;;;;5097921;28;20234;-86
2023/08/13 09:34:24;;;;;;;3.20;2.90;;;19.50;89.30;;;;;;5080635;28;20486;-87
2023/08/13 09:36:52;;;;;;;3.28;2.97;;;19.50;89.50;;;;;;5080873;28;20152;-87
2023/08/13 09:39:18;;;;;;;3.22;2.80;;;19.60;89.40;;;;;;5116716;28;20163;-86
2023/08/13 09:41:44;;;;;;;3.40;3.10;;;19.50;89.40;;;;;;5081201;28;20167;-84
2023/08/13 09:44:10;;;;;;;2.97;2.67;;;19.50;89.70;;;;;;5081745;28;20156;-86
2023/08/13 09:46:36;;;;;;;3.38;3.00;;;19.50;89.60;;;;;;5098062;28;20207;-87
2023/08/13 09:49:04;;;;;;;3.30;2.83;;;19.50;89.70;;;;;;5098370;28;20171;-87
2023/08/13 09:51:31;;;;;;;3.20;2.90;;;19.60;90.00;;;;;;5098117;28;20155;-85
2023/08/13 09:54:00;;;;;;;3.17;2.88;;;19.60;90.00;;;;;;5098653;28;20153;-85
2023/08/13 09:56:28;;;;;;;3.00;2.75;;;19.50;90.10;;;;;;5098596;28;20220;-85
2023/08/13 09:58:53;;;;;;;3.10;2.80;;;19.60;90.20;;;;;;5098815;28;20163;-86
2023/08/13 10:01:19;;;;;;;3.33;3.03;;;19.50;90.10;;;;;;5098542;28;20175;-85
2023/08/13 10:03:45;;;;;;;3.45;3.15;;;19.60;90.20;;;;;;5098103;28;20160;-86
2023/08/13 10:06:11;;;;;;;3.33;3.03;;;19.60;90.20;;;;;;5097189;28;20194;-84
2023/08/13 10:08:41;;;;;;;3.20;2.90;;;19.60;90.30;;;;;;5097516;28;20261;-86
2023/08/13 10:11:06;;;;;;;3.55;3.25;;;19.70;90.40;;;;;;5063539;28;20667;-85
2023/08/13 10:13:32;;;;;;;4.13;3.10;;;19.60;90.40;;;;;;5115487;28;20164;-85
2023/08/13 10:15:58;;;;;;;3.22;2.92;;;19.60;90.40;;;;;;5116036;28;20156;-85
2023/08/13 10:18:25;;;;;;;3.28;2.97;;;19.60;90.40;;;;;;5098068;28;20627;-86
2023/08/13 10:20:51;;;;;;;3.45;3.15;;;19.60;90.40;;;;;;5097763;28;20163;-86
2023/08/13 10:23:18;;;;;;;3.40;3.10;;;19.60;90.50;;;;;;5097995;28;20160;-86
2023/08/13 10:25:44;;;;;;;4.60;3.28;;;19.60;90.60;;;;;;5098548;28;20503;-86
2023/08/13 10:28:31;;;;;;;4.00;3.20;;;19.60;90.60;;;;;;5081882;28;20630;-86
2023/08/13 10:31:30;;;;;;;3.47;3.10;;;19.60;90.60;;;;;;5098475;28;20160;-87
2023/08/13 10:34:12;;;;;;;3.22;2.90;;;19.60;90.70;;;;;;5097987;28;20228;-86
2023/08/13 10:36:44;;;;;;;3.45;3.10;;;19.70;90.70;;;;;;5116253;28;20160;-86
2023/08/13 10:39:33;;;;;;;3.47;3.17;;;19.60;90.70;;;;;;5096692;28;20723;-85
2023/08/13 10:42:03;;;;;;;3.75;3.25;;;19.60;90.80;;;;;;5103587;28;20258;-86
2023/08/13 10:44:30;;;;;;;3.88;3.00;;;19.60;90.80;;;;;;5103490;28;20251;-86
2023/08/13 10:47:00;;;;;;;3.47;2.80;;;19.60;90.90;;;;;;5121369;28;20249;-86
2023/08/13 10:49:31;;;;;;;3.80;3.40;;;19.70;90.90;;;;;;5070062;28;20184;-87
2023/08/13 10:52:01;;;;;;;4.07;3.35;;;19.60;90.80;;;;;;5080681;28;20632;-86
2023/08/13 10:54:27;;;;;;;3.13;2.83;;;19.70;90.90;;;;;;5096726;28;20148;-85
2023/08/13 10:57:00;;;;;;;4.47;3.00;;;19.70;91.00;;;;;;5099637;28;20227;-87
2023/08/13 10:59:30;;;;;;;3.17;2.88;;;19.70;91.00;;;;;;5066724;28;20160;-88
2023/08/13 11:02:14;;;;;;;3.40;3.10;;;19.70;91.00;;;;;;5101330;28;20525;-86
2023/08/13 11:04:42;;;;;;;3.20;2.90;;;19.70;90.90;;;;;;5135170;27;20194;-86
2023/08/13 11:07:09;;;;;;;3.00;2.70;;;19.70;90.90;;;;;;5115647;28;20218;-87
2023/08/13 11:09:36;;;;;;;3.13;2.72;;;19.70;91.00;;;;;;5096608;28;20152;-86
2023/08/13 11:12:03;;;;;;;3.38;2.90;;;19.70;91.00;;;;;;5079042;28;20156;-86
2023/08/13 11:14:29;;;;;;;3.15;2.85;;;19.80;91.00;;;;;;5096217;28;20238;-85
2023/08/13 11:16:56;;;;;;;5.22;3.17;;;19.80;90.90;;;;;;5112947;28;20469;-86
2023/08/13 11:19:21;;;;;;;4.40;3.17;;;19.70;90.90;;;;;;5078991;28;20573;-85
2023/08/13 11:21:47;;;;;;;4.53;3.20;;;19.80;90.90;;;;;;5095933;28;20696;-87
2023/08/13 11:24:13;;;;;;;2.97;2.72;;;19.80;90.90;;;;;;5095974;28;20148;-86
2023/08/13 11:26:39;;;;;;;3.78;2.80;;;19.80;91.00;;;;;;5095885;28;20180;-86
2023/08/13 11:29:05;;;;;;;4.88;2.83;;;19.80;90.90;;;;;;5112712;28;20159;-86
2023/08/13 11:31:34;;;;;;;4.32;2.65;;;19.80;90.90;;;;;;5078680;28;20156;-86
2023/08/13 11:34:00;;;;;;;4.20;2.90;;;19.80;90.90;;;;;;5095751;28;20159;-86
2023/08/13 11:36:26;;;;;;;4.50;2.90;;;19.80;90.90;;;;;;5062201;28;20171;-86
2023/08/13 11:38:52;;;;;;;3.55;2.55;;;19.80;90.90;;;;;;5062051;28;20175;-86
2023/08/13 11:41:48;;;;;;;5.68;3.10;;;19.80;90.90;;;;;;5112229;28;20171;-87
2023/08/13 11:44:21;;;;;;;3.13;2.83;;;19.90;90.90;;;;;;5113474;28;20149;-86
2023/08/13 11:46:57;;;;;;;3.78;2.95;;;19.80;90.90;;;;;;5046321;28;20234;-86
2023/08/13 11:49:23;;;;;;;4.28;2.83;;;19.80;90.90;;;;;;5078641;28;20160;-87
2023/08/13 11:51:49;;;;;;;3.05;2.75;;;19.80;90.90;;;;;;5095739;28;20231;-85
2023/08/13 11:54:28;;;;;;;;;;;;;;;;;;;;;
2023/08/13 11:56:55;;;;;;;6.43;2.63;;;19.80;90.90;;;;;;5070704;28;20229;-87
2023/08/13 11:59:29;;;;;;;2.78;2.33;;;19.90;90.90;;;;;;5078523;28;20171;-86
2023/08/13 12:01:59;;;;;;;2.70;2.50;;;19.90;90.90;;;;;;5062377;28;20182;-88
2023/08/13 12:04:32;;;;;;;3.15;2.38;;;19.80;90.90;;;;;;5078003;28;20198;-87
2023/08/13 12:06:59;;;;;;;2.50;2.30;;;19.90;91.00;;;;;;5077206;28;20223;-85
2023/08/13 12:09:24;;;;;;;2.85;2.53;;;19.90;91.00;;;;;;5113323;28;20172;-87
2023/08/13 12:11:53;;;;;;;4.40;2.30;;;19.90;91.00;;;;;;5111924;28;20218;-86
2023/08/13 12:14:19;;;;;;;3.63;2.65;;;19.90;90.90;;;;;;5094884;28;20156;-86
2023/08/13 12:16:49;;;;;;;2.67;2.42;;;19.90;90.90;;;;;;5113454;28;20196;-85
2023/08/13 12:19:15;;;;;;;2.60;2.40;;;19.90;90.90;;;;;;5060637;28;20274;-85
2023/08/13 12:21:41;;;;;;;2.60;2.40;;;19.90;90.90;;;;;;5078115;28;20239;-87
2023/08/13 12:24:11;;;;;;;3.47;2.47;;;19.90;90.90;;;;;;5113888;28;20172;-87
2023/08/13 12:26:37;;;;;;;2.80;2.50;;;19.90;90.90;;;;;;5060430;28;20226;-85
2023/08/13 12:29:03;;;;;;;2.63;2.42;;;19.90;90.90;;;;;;5112882;28;20201;-88
2023/08/13 12:31:31;;;;;;;2.45;2.25;;;19.90;90.90;;;;;;5077676;28;20160;-87
2023/08/13 12:34:00;;;;;;;3.13;2.20;;;19.90;90.80;;;;;;5094447;28;20254;-87
2023/08/13 12:36:26;;;;;;;2.50;2.30;;;19.90;90.80;;;;;;5076369;28;20191;-88
2023/08/13 12:38:52;;;;;;;2.30;2.10;;;19.90;90.80;;;;;;5111229;28;20164;-85
2023/08/13 12:41:18;;;;;;;2.40;2.20;;;19.90;90.80;;;;;;5094964;28;20160;-86
2023/08/13 12:43:45;;;;;;;3.65;2.40;;;19.90;90.70;;;;;;5078585;28;20156;-87
2023/08/13 12:46:11;;;;;;;2.85;2.00;;;19.80;90.60;;;;;;5095347;28;20184;-86
2023/08/13 12:48:37;;;;;;;2.38;2.17;;;19.90;90.60;;;;;;5094578;28;20618;-86
2023/08/13 12:51:07;;;;;;;2.55;2.35;;;19.90;90.60;;;;;;5095210;28;20153;-86